Wetterstation Vordersexau
Wetterdaten: Woche 22.05.23 - 28.05.23 (KW21)
Datum Zeit Temp. A. Feuchte A. Luftdruck Regen Wind Richtung Taupunkt Windchill Windben
22.05.2023 00:00 12,0 C 57 % 1011,0 hPa 0,0 l/m 1,1 km/h (1 Bft) N-NO 3,8 C 12,0 C 2,5 km/h (1 Bft)
22.05.2023 01:00 10,3 C 74 % 1012,1 hPa 0,0 l/m 3,6 km/h (1 Bft) N 5,9 C 10,3 C 7,2 km/h (2 Bft)
22.05.2023 02:00 9,4 C 81 % 1012,8 hPa 0,0 l/m 0,0 km/h (0 Bft) N 6,3 C 9,4 C 2,5 km/h (1 Bft)
22.05.2023 03:00 8,3 C 88 % 1013,5 hPa 0,3 l/m 0,0 km/h (0 Bft) N 6,4 C 8,3 C 0,0 km/h (0 Bft)
22.05.2023 04:00 8,1 C 94 % 1013,9 hPa 0,3 l/m 0,0 km/h (0 Bft) N-NW 7,2 C 8,1 C 0,0 km/h (0 Bft)
22.05.2023 05:00 7,9 C 96 % 1013,9 hPa 0,3 l/m 1,1 km/h (1 Bft) N 7,3 C 7,9 C 2,5 km/h (1 Bft)
22.05.2023 06:00 7,8 C 97 % 1014,0 hPa 0,0 l/m 0,0 km/h (0 Bft) N 7,4 C 7,8 C 0,0 km/h (0 Bft)
22.05.2023 07:00 7,9 C 97 % 1014,3 hPa 0,0 l/m 0,0 km/h (0 Bft) N 7,5 C 7,9 C 0,0 km/h (0 Bft)
22.05.2023 08:00 7,8 C 97 % 1014,2 hPa 0,0 l/m 0,0 km/h (0 Bft) N 7,4 C 7,8 C 0,0 km/h (0 Bft)
22.05.2023 09:00 7,8 C 97 % 1014,3 hPa 0,0 l/m 0,0 km/h (0 Bft) N 7,4 C 7,8 C 0,0 km/h (0 Bft)
22.05.2023 10:00 7,9 C 98 % 1014,8 hPa 0,0 l/m 0,0 km/h (0 Bft) N-NO 7,6 C 7,9 C 0,0 km/h (0 Bft)
22.05.2023 11:00 8,1 C 91 % 1015,3 hPa 0,0 l/m 1,1 km/h (1 Bft) N 6,7 C 8,1 C 2,5 km/h (1 Bft)
22.05.2023 12:00 8,0 C 93 % 1015,7 hPa 0,0 l/m 0,0 km/h (0 Bft) N 6,9 C 8,0 C 2,5 km/h (1 Bft)
22.05.2023 13:00 8,1 C 93 % 1016,2 hPa 0,3 l/m 0,0 km/h (0 Bft) W-NW 7,0 C 8,1 C 2,5 km/h (1 Bft)
22.05.2023 14:00 8,3 C 93 % 1016,5 hPa 0,0 l/m 1,1 km/h (1 Bft) N 7,2 C 8,3 C 2,5 km/h (1 Bft)
22.05.2023 15:00 8,4 C 93 % 1016,8 hPa 0,0 l/m 0,0 km/h (0 Bft) N-NO 7,3 C 8,4 C 2,5 km/h (1 Bft)
22.05.2023 16:00 8,9 C 88 % 1017,0 hPa 0,0 l/m 1,1 km/h (1 Bft) N 7,0 C 8,9 C 2,5 km/h (1 Bft)
22.05.2023 17:00 9,7 C 83 % 1017,1 hPa 0,0 l/m 1,1 km/h (1 Bft) N-NO 7,0 C 9,7 C 3,6 km/h (1 Bft)
22.05.2023 18:00 10,0 C 83 % 1017,1 hPa 0,0 l/m 1,1 km/h (1 Bft) N 7,2 C 10,0 C 3,6 km/h (1 Bft)
22.05.2023 19:00 10,2 C 86 % 1017,1 hPa 0,0 l/m 0,0 km/h (0 Bft) N-NO 8,0 C 10,2 C 2,5 km/h (1 Bft)
22.05.2023 20:00 9,3 C 89 % 1017,2 hPa 0,0 l/m 1,1 km/h (1 Bft) N 7,6 C 9,3 C 3,6 km/h (1 Bft)
22.05.2023 21:00 9,1 C 91 % 1017,2 hPa 0,0 l/m 0,0 km/h (0 Bft) N 7,7 C 9,1 C 0,0 km/h (0 Bft)
22.05.2023 22:00 9,2 C 93 % 1017,7 hPa 0,0 l/m 0,0 km/h (0 Bft) N 8,1 C 9,2 C 0,0 km/h (0 Bft)
22.05.2023 23:00 8,7 C 96 % 1017,9 hPa 0,0 l/m 0,0 km/h (0 Bft) N 8,1 C 8,7 C 0,0 km/h (0 Bft)
23.05.2023 00:00 8,3 C 97 % 1018,0 hPa 0,6 l/m 0,0 km/h (0 Bft) N 7,9 C 8,3 C 2,5 km/h (1 Bft)
23.05.2023 01:00 8,1 C 99 % 1018,0 hPa 0,0 l/m 0,0 km/h (0 Bft) N 8,0 C 8,1 C 0,0 km/h (0 Bft)
23.05.2023 02:00 8,1 C 99 % 1017,9 hPa 0,0 l/m 0,0 km/h (0 Bft) N 8,0 C 8,1 C 0,0 km/h (0 Bft)
23.05.2023 03:00 8,1 C 99 % 1017,8 hPa 0,0 l/m 0,0 km/h (0 Bft) N 8,0 C 8,1 C 0,0 km/h (0 Bft)
23.05.2023 04:00 8,1 C 99 % 1017,4 hPa 0,0 l/m 0,0 km/h (0 Bft) N 8,0 C 8,1 C 0,0 km/h (0 Bft)
23.05.2023 05:00 8,1 C 99 % 1017,2 hPa 0,0 l/m 0,0 km/h (0 Bft) N 8,0 C 8,1 C 0,0 km/h (0 Bft)
23.05.2023 06:00 8,0 C 99 % 1016,8 hPa 0,0 l/m 0,0 km/h (0 Bft) N 7,9 C 8,0 C 0,0 km/h (0 Bft)
23.05.2023 07:00 7,2 C 99 % 1016,5 hPa 0,0 l/m 0,0 km/h (0 Bft) N 7,1 C 7,2 C 0,0 km/h (0 Bft)
23.05.2023 08:00 7,4 C 99 % 1016,6 hPa 0,0 l/m 0,0 km/h (0 Bft) N 7,3 C 7,4 C 0,0 km/h (0 Bft)
23.05.2023 09:00 7,2 C 99 % 1016,7 hPa 0,0 l/m 0,0 km/h (0 Bft) N 7,1 C 7,2 C 0,0 km/h (0 Bft)
23.05.2023 10:00 7,5 C 99 % 1016,8 hPa 0,0 l/m 0,0 km/h (0 Bft) N 7,4 C 7,5 C 0,0 km/h (0 Bft)
23.05.2023 11:00 8,0 C 99 % 1016,9 hPa 0,0 l/m 0,0 km/h (0 Bft) N 7,9 C 8,0 C 0,0 km/h (0 Bft)
23.05.2023 12:00 9,1 C 97 % 1017,1 hPa 0,0 l/m 0,0 km/h (0 Bft) W-SW 8,6 C 9,1 C 0,0 km/h (0 Bft)
23.05.2023 13:00 9,8 C 93 % 1017,3 hPa 0,0 l/m 1,1 km/h (1 Bft) NO 8,7 C 9,8 C 2,5 km/h (1 Bft)
23.05.2023 14:00 10,9 C 82 % 1017,4 hPa 0,0 l/m 1,1 km/h (1 Bft) NO 7,9 C 10,9 C 3,6 km/h (1 Bft)
23.05.2023 15:00 11,0 C 79 % 1017,3 hPa 0,0 l/m 5,0 km/h (1 Bft) O 7,5 C 11,0 C 7,2 km/h (2 Bft)
23.05.2023 16:00 12,0 C 78 % 1017,1 hPa 0,0 l/m 2,5 km/h (1 Bft) NO 8,3 C 12,0 C 6,1 km/h (2 Bft)
23.05.2023 17:00 13,6 C 71 % 1016,7 hPa 0,0 l/m 3,6 km/h (1 Bft) O-NO 8,4 C 13,6 C 6,1 km/h (2 Bft)
23.05.2023 18:00 13,6 C 70 % 1016,2 hPa 0,0 l/m 2,5 km/h (1 Bft) O-NO 8,2 C 13,6 C 3,6 km/h (1 Bft)
23.05.2023 19:00 13,7 C 71 % 1015,8 hPa 0,0 l/m 2,5 km/h (1 Bft) NO 8,5 C 13,7 C 3,6 km/h (1 Bft)
23.05.2023 20:00 12,0 C 76 % 1015,9 hPa 0,0 l/m 2,5 km/h (1 Bft) N-NO 7,9 C 12,0 C 6,1 km/h (2 Bft)
23.05.2023 21:00 12,0 C 76 % 1016,0 hPa 0,0 l/m 2,5 km/h (1 Bft) O-NO 7,9 C 12,0 C 6,1 km/h (2 Bft)
23.05.2023 22:00 10,3 C 84 % 1016,3 hPa 0,3 l/m 5,0 km/h (1 Bft) N 7,7 C 10,3 C 7,2 km/h (2 Bft)
23.05.2023 23:00 9,3 C 91 % 1016,5 hPa 0,6 l/m 0,0 km/h (0 Bft) N 7,9 C 9,3 C 0,0 km/h (0 Bft)
24.05.2023 00:00 9,4 C 86 % 1016,6 hPa 0,0 l/m 0,0 km/h (0 Bft) N 7,2 C 9,4 C 0,0 km/h (0 Bft)
24.05.2023 01:00 9,1 C 86 % 1016,5 hPa 0,0 l/m 0,0 km/h (0 Bft) N-NO 6,9 C 9,1 C 0,0 km/h (0 Bft)
24.05.2023 02:00 9,8 C 81 % 1016,3 hPa 0,0 l/m 1,1 km/h (1 Bft) N 6,7 C 9,8 C 2,5 km/h (1 Bft)
24.05.2023 03:00 9,3 C 83 % 1015,9 hPa 0,0 l/m 0,0 km/h (0 Bft) N 6,6 C 9,3 C 0,0 km/h (0 Bft)
24.05.2023 04:00 9,1 C 84 % 1015,7 hPa 0,0 l/m 0,0 km/h (0 Bft) N-NO 6,5 C 9,1 C 2,5 km/h (1 Bft)
24.05.2023 05:00 9,0 C 84 % 1015,3 hPa 0,0 l/m 2,5 km/h (1 Bft) N-NO 6,4 C 9,0 C 3,6 km/h (1 Bft)
24.05.2023 06:00 8,9 C 82 % 1014,7 hPa 0,0 l/m 1,1 km/h (1 Bft) N 6,0 C 8,9 C 2,5 km/h (1 Bft)
24.05.2023 07:00 6,9 C 89 % 1014,5 hPa 0,0 l/m 0,0 km/h (0 Bft) N-NO 5,2 C 6,9 C 0,0 km/h (0 Bft)
24.05.2023 08:00 5,5 C 96 % 1014,6 hPa 0,0 l/m 1,1 km/h (1 Bft) N 4,9 C 5,5 C 3,6 km/h (1 Bft)
24.05.2023 09:00 5,5 C 97 % 1014,8 hPa 0,0 l/m 0,0 km/h (0 Bft) N 5,1 C 5,5 C 0,0 km/h (0 Bft)
24.05.2023 10:00 5,8 C 97 % 1014,9 hPa 0,0 l/m 0,0 km/h (0 Bft) N 5,4 C 5,8 C 0,0 km/h (0 Bft)
24.05.2023 11:00 6,9 C 95 % 1015,1 hPa 0,0 l/m 0,0 km/h (0 Bft) N-NO 6,2 C 6,9 C 0,0 km/h (0 Bft)
24.05.2023 12:00 8,5 C 92 % 1015,4 hPa 0,0 l/m 1,1 km/h (1 Bft) N-NO 7,3 C 8,5 C 3,6 km/h (1 Bft)
24.05.2023 13:00 9,9 C 82 % 1015,4 hPa 0,0 l/m 5,0 km/h (1 Bft) N-NO 7,0 C 9,9 C 7,2 km/h (2 Bft)
24.05.2023 14:00 9,7 C 85 % 1015,6 hPa 0,0 l/m 3,6 km/h (1 Bft) NO 7,3 C 9,7 C 6,1 km/h (2 Bft)
24.05.2023 15:00 10,0 C 82 % 1015,7 hPa 0,0 l/m 3,6 km/h (1 Bft) N 7,1 C 10,0 C 6,1 km/h (2 Bft)
24.05.2023 16:00 10,6 C 80 % 1015,4 hPa 0,0 l/m 2,5 km/h (1 Bft) NW 7,3 C 10,6 C 3,6 km/h (1 Bft)
24.05.2023 17:00 11,5 C 79 % 1015,6 hPa 0,0 l/m 3,6 km/h (1 Bft) NW 8,0 C 11,5 C 7,2 km/h (2 Bft)
24.05.2023 18:00 12,2 C 78 % 1015,3 hPa 0,0 l/m 5,0 km/h (1 Bft) NO 8,5 C 12,2 C 7,2 km/h (2 Bft)
24.05.2023 19:00 13,2 C 74 % 1014,9 hPa 0,0 l/m 6,1 km/h (2 Bft) W 8,7 C 13,2 C 14,8 km/h (3 Bft)
24.05.2023 20:00 16,2 C 72 % 1014,6 hPa 0,0 l/m 3,6 km/h (1 Bft) O 11,1 C 16,2 C 6,1 km/h (2 Bft)
24.05.2023 21:00 15,1 C 66 % 1014,4 hPa 0,0 l/m 2,5 km/h (1 Bft) O-NO 8,8 C 15,1 C 3,6 km/h (1 Bft)
24.05.2023 22:00 14,2 C 66 % 1014,8 hPa 0,0 l/m 8,6 km/h (2 Bft) N 7,9 C 12,9 C 17,3 km/h (3 Bft)
24.05.2023 23:00 5,2 C 94 % 1016,2 hPa 0,0 l/m 0,0 km/h (0 Bft) N 4,3 C 5,2 C 0,0 km/h (0 Bft)
25.05.2023 00:00 5,0 C 96 % 1016,2 hPa 0,0 l/m 0,0 km/h (0 Bft) N 4,4 C 5,0 C 0,0 km/h (0 Bft)
25.05.2023 01:00 5,4 C 95 % 1016,1 hPa 0,0 l/m 0,0 km/h (0 Bft) N 4,7 C 5,4 C 2,5 km/h (1 Bft)
25.05.2023 02:00 6,1 C 96 % 1016,4 hPa 0,0 l/m 0,0 km/h (0 Bft) N 5,5 C 6,1 C 0,0 km/h (0 Bft)
25.05.2023 03:00 7,4 C 94 % 1016,3 hPa 0,0 l/m 0,0 km/h (0 Bft) N 6,5 C 7,4 C 2,5 km/h (1 Bft)
25.05.2023 04:00 8,1 C 93 % 1016,1 hPa 0,0 l/m 0,0 km/h (0 Bft) W 7,0 C 8,1 C 0,0 km/h (0 Bft)
25.05.2023 05:00 9,3 C 92 % 1016,1 hPa 0,0 l/m 2,5 km/h (1 Bft) W 8,1 C 9,3 C 3,6 km/h (1 Bft)
25.05.2023 06:00 10,3 C 89 % 1015,8 hPa 0,0 l/m 2,5 km/h (1 Bft) N 8,6 C 10,3 C 3,6 km/h (1 Bft)
25.05.2023 07:00 11,4 C 89 % 1015,2 hPa 0,0 l/m 0,0 km/h (0 Bft) S-SO 9,7 C 11,4 C 2,5 km/h (1 Bft)
25.05.2023 08:00 11,7 C 86 % 1014,8 hPa 0,0 l/m 1,1 km/h (1 Bft) S 9,4 C 11,7 C 2,5 km/h (1 Bft)
25.05.2023 09:00 12,3 C 80 % 1014,4 hPa 0,0 l/m 1,1 km/h (1 Bft) S 8,9 C 12,3 C 2,5 km/h (1 Bft)
25.05.2023 10:00 12,5 C 78 % 1013,8 hPa 0,0 l/m 2,5 km/h (1 Bft) N 8,8 C 12,5 C 3,6 km/h (1 Bft)
25.05.2023 11:00 13,7 C 72 % 1013,2 hPa 0,0 l/m 0,0 km/h (0 Bft) N 8,7 C 13,7 C 2,5 km/h (1 Bft)
25.05.2023 12:00 13,0 C 73 % 1012,5 hPa 0,0 l/m 0,0 km/h (0 Bft) O-NO 8,3 C 13,0 C 2,5 km/h (1 Bft)
25.05.2023 13:00 16,1 C 67 % 1014,5 hPa 0,0 l/m 4,3 km/h (1 Bft) NO 9,7 C 16,1 C 10,3 km/h (2 Bft)
25.05.2023 14:00 20,9 C 57 % 1016,3 hPa 0,0 l/m 5,0 km/h (1 Bft) N-NO 12,1 C 20,9 C 6,1 km/h (2 Bft)
25.05.2023 15:00 22,1 C 56 % 1016,3 hPa 0,0 l/m 3,6 km/h (1 Bft) N 12,9 C 22,1 C 7,2 km/h (2 Bft)
25.05.2023 16:00 22,2 C 55 % 1016,2 hPa 0,0 l/m 5,0 km/h (1 Bft) N 12,7 C 22,2 C 7,2 km/h (2 Bft)
25.05.2023 17:00 22,5 C 53 % 1016,2 hPa 0,0 l/m 6,1 km/h (2 Bft) NO 12,4 C 22,5 C 9,7 km/h (2 Bft)
25.05.2023 18:00 22,2 C 55 % 1016,5 hPa 0,0 l/m 2,5 km/h (1 Bft) N-NO 12,7 C 22,2 C 3,6 km/h (1 Bft)
25.05.2023 19:00 21,7 C 57 % 1016,3 hPa 0,0 l/m 2,5 km/h (1 Bft) N 12,8 C 21,7 C 3,6 km/h (1 Bft)
Min-Datum _ 25.05.23 25.05.23 22.05.23 - 22.05.23 - 22.05.23 25.05.23 22.05.23
_ Min-Zeit 00:35 17:38 00:35 - 02:35 - 00:35 00:35 03:35
Minimum _ 5,0 C 53 % 1011,0 hPa - 0,0 km/h (0 Bft) - 3,8 C 5,0 C 0,0 km/h (0 Bft)
Max-Datum _ 25.05.23 23.05.23 23.05.23 23.05.23 24.05.23 - 25.05.23 25.05.23 24.05.23
_ Max-Zeit 17:38 01:35 00:35 00:35 22:35 - 15:38 17:38 22:35
Maximum _ 22,5 C 99 % 1018,0 hPa 0,6 l/m 8,6 km/h
N (2 Bft)
- 12,9 C 22,5 C 17,3 km/h
N (3 Bft)
Durchschnitt _ 10,3 C 85 % 1015,8 hPa #2,7 l/m 1,4 km/h (1 Bft) N-NO 7,7 C 10,3 C 2,9 km/h (1 Bft)
www.sexauwetter.de